Time;durP1;ratioP1;P1;durP2;ratioP2;P2;SDS_P1;SDS_P2;PMS_P1;PMS_P2;Temp;Humidity;BMP_temperature;BMP_pressure;BME280_temperature;BME280_humidity;BME280_pressure;Samples;Min_cycle;Max_cycle;Signal;HPM_P1;HPM_P2
2021/12/07 00:01:24;;;;;;;20.08;12.73;;;;;;;0.58;100.00;100428.97;5044696;28;20090;-62
2021/12/07 00:03:51;;;;;;;23.50;14.65;;;;;;;0.58;100.00;100426.25;5043273;28;20067;-63
2021/12/07 00:06:17;;;;;;;23.80;13.32;;;;;;;0.65;100.00;100438.03;5045263;28;20104;-63
2021/12/07 00:08:42;;;;;;;20.27;13.45;;;;;;;0.61;99.87;100436.69;5044800;28;20140;-62
2021/12/07 00:11:09;;;;;;;21.83;13.63;;;;;;;0.62;99.85;100441.09;5042495;28;20021;-62
2021/12/07 00:13:38;;;;;;;21.15;13.35;;;;;;;0.62;100.00;100439.25;5035080;28;20904;-63
2021/12/07 00:16:09;;;;;;;21.63;13.65;;;;;;;0.69;100.00;100444.78;5043531;28;20131;-63
2021/12/07 00:18:35;;;;;;;21.38;13.32;;;;;;;0.62;100.00;100443.81;5044407;28;20044;-63
2021/12/07 00:21:02;;;;;;;21.13;13.07;;;;;;;0.64;99.72;100434.50;5044421;28;20489;-63
2021/12/07 00:23:27;;;;;;;24.95;14.65;;;;;;;0.61;100.00;100436.69;5045730;28;20648;-63
2021/12/07 00:25:53;;;;;;;25.52;15.82;;;;;;;0.64;100.00;100439.06;5044347;28;20025;-63
2021/12/07 00:28:21;;;;;;;25.73;15.85;;;;;;;0.66;100.00;100435.19;5043583;28;20082;-63
2021/12/07 00:30:48;;;;;;;29.02;16.23;;;;;;;0.65;100.00;100446.97;5044653;28;20025;-63
2021/12/07 00:35:55;;;;;;;28.92;16.98;;;;;;;0.66;100.00;100454.09;5042193;28;20033;-63
2021/12/07 00:38:24;;;;;;;28.13;18.05;;;;;;;0.73;100.00;100451.53;5044018;28;20036;-63
2021/12/07 00:40:52;;;;;;;30.70;18.75;;;;;;;0.77;100.00;100460.97;5043588;28;20082;-63
2021/12/07 00:43:17;;;;;;;30.00;18.85;;;;;;;0.78;100.00;100459.94;5044838;28;20044;-63
2021/12/07 00:45:45;;;;;;;29.08;17.85;;;;;;;0.85;100.00;100454.66;5044681;28;20120;-63
2021/12/07 00:48:15;;;;;;;30.00;17.50;;;;;;;0.99;100.00;100462.84;5043340;28;20052;-63
2021/12/07 00:50:44;;;;;;;35.90;19.33;;;;;;;0.97;100.00;100467.63;5043884;28;20025;-63
2021/12/07 00:53:09;;;;;;;31.00;17.42;;;;;;;0.98;100.00;100472.00;5043384;28;20068;-63
2021/12/07 00:55:40;;;;;;;32.10;18.70;;;;;;;1.00;100.00;100479.91;5044154;28;20066;-63
2021/12/07 00:58:16;;;;;;;33.15;19.10;;;;;;;1.03;100.00;100474.16;5044232;28;20363;-63
2021/12/07 01:00:43;;;;;;;30.13;18.02;;;;;;;1.08;100.00;100479.88;5044136;28;20091;-63
2021/12/07 01:03:09;;;;;;;31.90;19.10;;;;;;;1.10;100.00;100485.09;5041840;28;20037;-63
2021/12/07 01:05:36;;;;;;;34.45;19.00;;;;;;;1.12;100.00;100488.50;5044162;28;20440;-63
2021/12/07 01:26:54;;;;;;;32.97;18.50;;;;;;;1.56;100.00;100518.44;5043947;28;20208;-63
2021/12/07 01:29:22;;;;;;;34.63;19.05;;;;;;;1.59;100.00;100528.09;5044149;28;20036;-63
2021/12/07 01:32:01;;;;;;;28.67;17.00;;;;;;;1.65;100.00;100525.50;5043963;28;20025;-63
2021/12/07 01:37:56;;;;;;;29.15;15.82;;;;;;;1.81;100.00;100536.19;5043976;28;20118;-63
2021/12/07 01:40:25;;;;;;;31.85;16.27;;;;;;;1.76;100.00;100543.19;5040016;28;20037;-68
2021/12/07 01:51:36;;;;;;;30.60;13.70;;;;;;;1.95;100.00;100553.53;5042419;28;20051;-68
2021/12/07 01:59:34;;;;;;;33.42;15.25;;;;;;;1.97;100.00;100562.28;5047931;28;20511;-63
2021/12/07 02:02:04;;;;;;;41.13;16.85;;;;;;;1.95;100.00;100571.63;5045461;28;20020;-63
2021/12/07 02:04:30;;;;;;;33.00;15.85;;;;;;;1.98;100.00;100582.13;5046577;28;20029;-64
2021/12/07 02:06:55;;;;;;;26.70;14.80;;;;;;;2.02;100.00;100575.28;5047700;28;20064;-63
2021/12/07 02:09:21;;;;;;;32.38;16.30;;;;;;;2.00;100.00;100574.66;5046198;28;20076;-63
2021/12/07 02:11:50;;;;;;;36.83;16.58;;;;;;;1.99;100.00;100595.47;5045620;28;20048;-63
2021/12/07 02:14:16;;;;;;;37.58;16.17;;;;;;;2.01;100.00;100593.41;5045378;28;20028;-63
2021/12/07 02:16:53;;;;;;;39.00;15.23;;;;;;;2.03;100.00;100595.97;5047898;28;20036;-63
2021/12/07 02:19:19;;;;;;;32.78;15.30;;;;;;;2.03;100.00;100596.81;5044794;28;20041;-63
2021/12/07 02:21:45;;;;;;;33.42;14.57;;;;;;;2.10;100.00;100604.19;5047218;28;20082;-63
2021/12/07 02:24:10;;;;;;;32.78;13.73;;;;;;;2.08;100.00;100605.22;5045523;28;20025;-63
2021/12/07 02:26:36;;;;;;;29.85;14.00;;;;;;;2.07;100.00;100608.94;5047092;28;20491;-64
2021/12/07 02:29:05;;;;;;;30.27;13.00;;;;;;;2.06;100.00;100607.25;5046644;28;20041;-67
2021/12/07 02:31:32;;;;;;;34.83;13.80;;;;;;;2.08;100.00;100610.66;5042065;28;20472;-63
2021/12/07 02:33:59;;;;;;;28.83;12.57;;;;;;;2.13;100.00;100614.66;5045910;28;20039;-63
2021/12/07 02:36:24;;;;;;;35.05;11.70;;;;;;;2.15;100.00;100618.03;5045344;28;20103;-63
2021/12/07 02:38:49;;;;;;;28.25;11.38;;;;;;;2.14;100.00;100616.38;5046661;28;20021;-63
2021/12/07 02:41:15;;;;;;;37.60;10.90;;;;;;;2.14;100.00;100628.03;5046429;28;20032;-63
2021/12/07 02:43:40;;;;;;;29.65;11.13;;;;;;;2.19;100.00;100630.22;5046501;28;20083;-63
2021/12/07 02:46:06;;;;;;;27.02;9.93;;;;;;;2.18;100.00;100625.78;5046633;28;20021;-63
2021/12/07 02:48:31;;;;;;;29.13;9.00;;;;;;;2.23;100.00;100634.22;5044435;28;20029;-63
2021/12/07 02:50:56;;;;;;;20.65;7.93;;;;;;;2.22;100.00;100643.38;5047017;28;20029;-63
2021/12/07 02:53:25;;;;;;;22.20;9.63;;;;;;;2.23;100.00;100650.47;5046265;28;20057;-63
2021/12/07 02:55:51;;;;;;;20.88;8.30;;;;;;;2.25;100.00;100652.00;5043896;28;20543;-63
2021/12/07 02:58:17;;;;;;;23.27;7.20;;;;;;;2.26;100.00;100650.13;5046379;28;20113;-64
2021/12/07 03:00:50;;;;;;;30.95;8.55;;;;;;;2.26;100.00;100660.97;5046433;28;20024;-63
2021/12/07 03:03:16;;;;;;;26.17;7.38;;;;;;;2.23;100.00;100664.88;5043394;28;20025;-63
2021/12/07 03:05:55;;;;;;;25.30;7.32;;;;;;;2.23;100.00;100662.19;5046202;28;20029;-63
2021/12/07 03:27:44;;;;;;;19.40;5.57;;;;;;;2.04;100.00;100682.44;5036834;28;20052;-63
2021/12/07 03:30:10;;;;;;;26.65;5.78;;;;;;;2.01;100.00;100693.63;5045561;28;20025;-63
2021/12/07 03:32:35;;;;;;;19.10;6.00;;;;;;;1.95;100.00;100693.50;5046128;28;20032;-63
2021/12/07 03:35:00;;;;;;;18.83;6.55;;;;;;;1.89;100.00;100700.50;5043255;28;20049;-64
2021/12/07 03:37:26;;;;;;;24.70;6.30;;;;;;;1.90;100.00;100704.88;5045853;28;20060;-63
2021/12/07 03:39:51;;;;;;;25.95;5.68;;;;;;;1.95;100.00;100704.34;5045685;28;20411;-63
2021/12/07 03:42:17;;;;;;;21.20;6.00;;;;;;;1.91;100.00;100711.97;5043803;28;20036;-63
2021/12/07 03:44:42;;;;;;;25.63;7.93;;;;;;;1.91;100.00;100713.84;5045621;28;20021;-63
2021/12/07 03:47:07;;;;;;;24.23;5.70;;;;;;;1.87;100.00;100718.75;5045393;28;20115;-63
2021/12/07 03:49:33;;;;;;;26.80;6.90;;;;;;;1.86;100.00;100722.50;5045006;28;20471;-63
2021/12/07 03:51:58;;;;;;;26.77;6.07;;;;;;;1.90;100.00;100721.13;5044816;28;20032;-64
2021/12/07 03:54:23;;;;;;;16.17;6.28;;;;;;;1.91;100.00;100720.09;5043465;28;20126;-63
2021/12/07 03:56:49;;;;;;;24.77;5.75;;;;;;;1.90;100.00;100726.53;5045585;28;20017;-63
2021/12/07 03:59:14;;;;;;;26.98;6.10;;;;;;;1.87;100.00;100731.47;5045149;28;20108;-63
2021/12/07 04:01:40;;;;;;;18.45;5.68;;;;;;;1.91;100.00;100721.97;5045316;28;20025;-63
2021/12/07 04:04:05;;;;;;;19.85;5.03;;;;;;;1.92;100.00;100726.34;5043133;28;20036;-63
2021/12/07 04:06:30;;;;;;;23.90;5.40;;;;;;;1.94;100.00;100727.88;5044937;28;20036;-63
2021/12/07 04:08:56;;;;;;;19.50;5.03;;;;;;;1.94;100.00;100727.88;5045094;28;20045;-63
2021/12/07 04:11:23;;;;;;;23.35;6.30;;;;;;;1.94;100.00;100732.47;5043187;28;20029;-63
2021/12/07 04:13:48;;;;;;;16.42;5.38;;;;;;;1.99;100.00;100730.91;5035905;28;20037;-63
2021/12/07 04:16:16;;;;;;;20.60;5.70;;;;;;;1.99;100.00;100735.47;5043671;28;20013;-63
2021/12/07 04:18:41;;;;;;;22.85;5.72;;;;;;;1.99;100.00;100751.72;5044061;28;20032;-63
2021/12/07 04:21:07;;;;;;;18.58;5.18;;;;;;;1.97;100.00;100749.16;5043828;28;20033;-63
2021/12/07 04:23:33;;;;;;;19.33;4.63;;;;;;;2.06;100.00;100734.56;5044633;28;20104;-63
2021/12/07 04:26:00;;;;;;;18.02;5.22;;;;;;;2.05;100.00;100740.19;5042400;28;20033;-64
2021/12/07 04:28:25;;;;;;;22.33;4.72;;;;;;;2.01;100.00;100749.66;5045042;28;20052;-63
2021/12/07 04:30:50;;;;;;;21.55;5.25;;;;;;;1.95;100.00;100748.53;5044601;28;20021;-63
2021/12/07 04:33:16;;;;;;;22.00;5.43;;;;;;;1.98;100.00;100759.00;5043966;28;20061;-63
2021/12/07 04:35:46;;;;;;;25.33;5.47;;;;;;;2.04;100.00;100750.16;5042234;28;20021;-63
2021/12/07 04:38:11;;;;;;;20.20;5.53;;;;;;;1.97;100.00;100748.34;5044338;28;20116;-63
2021/12/07 04:40:37;;;;;;;16.17;4.60;;;;;;;1.91;100.00;100758.00;5044341;28;20112;-63
2021/12/07 04:43:04;;;;;;;15.77;5.28;;;;;;;1.85;100.00;100774.13;5041395;28;20124;-68
2021/12/07 04:57:37;;;;;;;16.50;6.40;;;;;;;1.77;100.00;100766.88;5045062;28;20681;-68
2021/12/07 04:59:09;;;;;;;21.40;5.32;;;;;;;1.72;100.00;100766.56;5035144;28;20044;-63
2021/12/07 05:01:34;;;;;;;19.60;6.05;;;;;;;1.67;100.00;100753.53;5044901;28;20392;-64
2021/12/07 05:04:07;;;;;;;19.27;5.70;;;;;;;1.66;100.00;100799.75;5043646;28;20029;-64
2021/12/07 05:06:34;;;;;;;19.17;4.68;;;;;;;1.69;100.00;100799.41;5044352;28;20082;-63
2021/12/07 05:09:30;;;;;;;20.20;4.90;;;;;;;1.63;100.00;100790.13;5044088;28;20099;-63
2021/12/07 05:14:17;;;;;;;20.60;4.75;;;;;;;1.61;100.00;100808.38;5043123;28;20029;-63
2021/12/07 05:38:26;;;;;;;25.80;4.13;;;;;;;1.40;100.00;100827.03;5048380;28;20052;-63
2021/12/07 05:40:51;;;;;;;21.38;4.40;;;;;;;1.42;100.00;100833.13;5045970;28;20029;-62
2021/12/07 05:43:16;;;;;;;19.63;5.82;;;;;;;1.37;100.00;100852.59;5047880;28;20025;-62
2021/12/07 05:45:42;;;;;;;23.40;5.28;;;;;;;1.36;100.00;100859.00;5046458;28;20056;-62
2021/12/07 05:48:08;;;;;;;15.60;4.07;;;;;;;1.33;100.00;100859.38;5046774;28;20037;-62
2021/12/07 05:50:35;;;;;;;23.15;5.13;;;;;;;1.35;100.00;100865.44;5046224;28;20437;-62
2021/12/07 05:53:02;;;;;;;15.10;4.03;;;;;;;1.34;100.00;100869.16;5047074;28;20025;-63
2021/12/07 05:55:28;;;;;;;18.95;4.75;;;;;;;1.37;100.00;100874.25;5047551;28;20025;-62
2021/12/07 05:57:54;;;;;;;23.42;4.65;;;;;;;1.39;100.00;100884.88;5047711;28;20464;-62
2021/12/07 06:00:25;;;;;;;16.30;4.45;;;;;;;1.41;100.00;100883.69;5046985;28;20125;-62
2021/12/07 06:02:53;;;;;;;24.33;6.25;;;;;;;1.41;100.00;100889.09;5045082;28;20025;-62
2021/12/07 06:05:18;;;;;;;24.95;5.47;;;;;;;1.42;100.00;100885.41;5047698;28;20028;-62
2021/12/07 06:07:44;;;;;;;19.48;5.50;;;;;;;1.46;100.00;100885.88;5045986;28;20053;-62
2021/12/07 06:10:09;;;;;;;23.23;6.35;;;;;;;1.38;100.00;100892.16;5047219;28;20082;-62
2021/12/07 06:12:34;;;;;;;20.52;5.20;;;;;;;1.37;100.00;100893.19;5047233;28;20029;-62
2021/12/07 06:15:00;;;;;;;21.10;7.32;;;;;;;1.35;100.00;100883.53;5043465;28;20025;-63
2021/12/07 06:17:25;;;;;;;21.42;5.95;;;;;;;1.32;100.00;100879.31;5045839;28;20157;-62
2021/12/07 06:19:51;;;;;;;18.60;6.45;;;;;;;1.28;100.00;100886.09;5044316;28;20484;-63
2021/12/07 06:22:17;;;;;;;23.60;5.80;;;;;;;1.22;100.00;100878.66;5046524;28;20137;-63
2021/12/07 06:24:42;;;;;;;16.95;5.55;;;;;;;1.18;100.00;100866.47;5047085;28;20078;-63
2021/12/07 06:27:07;;;;;;;21.20;5.97;;;;;;;1.18;100.00;100875.44;5045712;28;20025;-63
2021/12/07 06:29:33;;;;;;;23.35;5.68;;;;;;;1.15;100.00;100885.72;5046541;28;20060;-63
2021/12/07 06:31:58;;;;;;;19.23;5.53;;;;;;;1.10;100.00;100885.38;5047530;28;20029;-63
2021/12/07 06:34:23;;;;;;;21.77;5.80;;;;;;;1.06;100.00;100887.56;5045959;28;20487;-62
2021/12/07 06:36:49;;;;;;;20.48;6.10;;;;;;;1.03;100.00;100896.88;5046910;28;20371;-62
2021/12/07 06:39:14;;;;;;;26.85;7.05;;;;;;;1.01;100.00;100890.81;5046774;28;20464;-63
2021/12/07 06:41:40;;;;;;;24.13;8.13;;;;;;;1.00;100.00;100896.38;5045178;28;20033;-62
2021/12/07 06:44:05;;;;;;;23.20;8.63;;;;;;;0.99;100.00;100898.22;5046173;28;20172;-63
2021/12/07 06:46:31;;;;;;;32.40;9.75;;;;;;;0.97;100.00;100892.16;5046880;28;20025;-63
2021/12/07 06:48:56;;;;;;;28.85;10.73;;;;;;;0.95;100.00;100888.75;5046458;28;20033;-62
2021/12/07 06:51:22;;;;;;;31.13;10.85;;;;;;;0.94;100.00;100897.03;5046256;28;20029;-63
2021/12/07 06:53:47;;;;;;;27.15;11.00;;;;;;;0.92;100.00;100888.25;5046907;28;20025;-63
2021/12/07 06:56:13;;;;;;;32.05;12.05;;;;;;;0.90;100.00;100899.22;5046345;28;20021;-62
2021/12/07 06:58:38;;;;;;;30.60;14.52;;;;;;;0.89;100.00;100899.41;5046437;28;20044;-62
2021/12/07 07:01:06;;;;;;;36.42;14.23;;;;;;;0.84;100.00;100896.34;5046388;28;20506;-63
2021/12/07 07:03:32;;;;;;;;;;;;;;;0.89;100.00;100900.25;5046179;28;20093;-63
2021/12/07 07:05:58;;;;;;;26.08;11.50;;;;;;;0.83;100.00;100905.47;5046458;28;20004;-63
2021/12/07 07:08:23;;;;;;;35.28;12.43;;;;;;;0.82;100.00;100915.44;5046083;28;20057;-62
2021/12/07 07:10:48;;;;;;;30.27;13.52;;;;;;;0.76;100.00;100910.69;5044947;28;20033;-63
2021/12/07 07:13:14;;;;;;;35.35;15.23;;;;;;;0.75;100.00;100914.41;5046024;28;20051;-62
2021/12/07 07:15:39;;;;;;;38.03;14.10;;;;;;;0.74;100.00;100916.25;5046376;28;20029;-62
2021/12/07 07:18:05;;;;;;;35.53;13.98;;;;;;;0.71;100.00;100908.50;5045316;28;20539;-62
2021/12/07 07:20:31;;;;;;;29.30;14.18;;;;;;;0.71;100.00;100907.63;5046343;28;20110;-63
2021/12/07 07:22:56;;;;;;;31.73;14.70;;;;;;;0.70;100.00;100909.47;5046502;28;20910;-62
2021/12/07 07:25:21;;;;;;;36.38;14.27;;;;;;;0.69;100.00;100913.19;5045876;28;20029;-63
2021/12/07 07:27:47;;;;;;;32.55;14.15;;;;;;;0.71;100.00;100911.19;5046209;28;20044;-62
2021/12/07 07:30:16;;;;;;;34.47;13.82;;;;;;;0.69;100.00;100913.19;5045634;28;20083;-62
2021/12/07 07:32:43;;;;;;;38.92;14.90;;;;;;;0.66;100.00;100918.09;5045495;28;20108;-62
2021/12/07 07:35:10;;;;;;;32.08;14.65;;;;;;;0.64;100.00;100922.81;5045268;28;20059;-62
2021/12/07 07:37:36;;;;;;;41.93;15.47;;;;;;;0.68;100.00;100927.75;5046411;28;20033;-62
2021/12/07 07:40:05;;;;;;;37.63;14.70;;;;;;;0.70;100.00;100931.09;5045690;28;20025;-64
2021/12/07 07:42:31;;;;;;;42.35;15.13;;;;;;;0.71;100.00;100935.53;5045413;28;20020;-63
2021/12/07 07:44:56;;;;;;;38.03;16.02;;;;;;;0.73;100.00;100940.75;5045210;28;20025;-62
2021/12/07 07:47:21;;;;;;;45.50;16.27;;;;;;;0.76;100.00;100935.88;5044451;28;20426;-63
2021/12/07 07:49:47;;;;;;;38.22;14.98;;;;;;;0.77;100.00;100929.47;5043872;28;20108;-62
2021/12/07 07:52:12;;;;;;;39.83;15.20;;;;;;;0.84;100.00;100918.81;5044582;28;20083;-63
2021/12/07 07:54:37;;;;;;;42.38;12.93;;;;;;;0.92;100.00;100921.56;5045503;28;20057;-63
2021/12/07 07:57:03;;;;;;;41.45;14.40;;;;;;;1.02;100.00;100924.09;5045013;28;20769;-64
2021/12/07 07:59:28;;;;;;;44.65;15.35;;;;;;;1.15;100.00;100918.19;5045899;28;20037;-62
2021/12/07 08:01:53;;;;;;;39.63;17.08;;;;;;;1.26;100.00;100917.84;5045593;28;20051;-63
2021/12/07 08:04:18;;;;;;;34.35;14.93;;;;;;;1.33;100.00;100915.34;5044137;28;20415;-63
2021/12/07 08:06:44;;;;;;;36.85;12.90;;;;;;;1.37;100.00;100911.25;5045453;28;20033;-63
2021/12/07 08:09:09;;;;;;;31.80;13.70;;;;;;;1.43;100.00;100916.84;5044363;28;20539;-62
2021/12/07 08:11:35;;;;;;;40.00;13.85;;;;;;;1.63;100.00;100924.63;5045450;28;20024;-62
2021/12/07 08:14:00;;;;;;;39.33;13.20;;;;;;;1.94;100.00;100912.06;5044268;28;20502;-63
2021/12/07 08:16:27;;;;;;;33.10;11.82;;;;;;;2.21;100.00;100920.78;5025480;28;20038;-63
2021/12/07 08:18:53;;;;;;;33.83;11.43;;;;;;;2.31;100.00;100907.88;5024406;28;20017;-63
2021/12/07 08:21:19;;;;;;;32.42;11.65;;;;;;;2.41;99.64;100922.06;5024634;28;20373;-64
2021/12/07 08:23:45;;;;;;;31.80;10.77;;;;;;;2.57;98.67;100923.84;5025258;28;20021;-63
2021/12/07 08:26:15;;;;;;;24.42;12.65;;;;;;;2.70;97.71;100920.56;5024478;28;20083;-62
2021/12/07 08:28:41;;;;;;;23.30;10.48;;;;;;;2.86;96.98;100926.75;5025078;28;20056;-62
2021/12/07 08:31:07;;;;;;;22.50;9.95;;;;;;;3.10;95.76;100930.34;5024330;28;20135;-63
2021/12/07 08:33:32;;;;;;;32.15;11.05;;;;;;;3.25;94.81;100933.13;5039932;28;20112;-63
2021/12/07 08:35:59;;;;;;;27.30;11.07;;;;;;;3.26;93.92;100932.94;5045119;28;20391;-63
2021/12/07 08:38:25;;;;;;;25.37;10.77;;;;;;;3.27;93.86;100931.06;5044823;28;20035;-62
2021/12/07 08:40:53;;;;;;;26.88;10.70;;;;;;;3.25;93.93;100928.53;5043788;28;20029;-62
2021/12/07 08:43:21;;;;;;;35.80;12.07;;;;;;;3.25;92.96;100933.97;5040508;28;20391;-63
2021/12/07 08:45:47;;;;;;;31.17;10.80;;;;;;;3.07;93.56;100936.94;5024630;28;20498;-62
2021/12/07 08:48:12;;;;;;;31.77;12.27;;;;;;;2.90;93.59;100934.53;5025775;28;20041;-63
2021/12/07 08:50:38;;;;;;;41.80;13.82;;;;;;;2.74;94.11;100930.88;5024858;28;20104;-63
2021/12/07 08:53:07;;;;;;;26.05;9.45;;;;;;;2.72;94.93;100943.75;5024675;28;20072;-64
2021/12/07 09:01:05;;;;;;;19.65;9.02;;;;;;;3.15;93.64;100929.78;5024425;28;20084;-63
2021/12/07 09:03:30;;;;;;;19.50;7.95;;;;;;;3.37;92.51;100920.78;5023997;28;20079;-63
2021/12/07 09:05:55;;;;;;;22.63;6.90;;;;;;;3.59;91.45;100919.91;5028543;28;20431;-63
2021/12/07 09:08:21;;;;;;;23.63;7.57;;;;;;;3.76;90.29;100914.34;5024325;28;20580;-63
2021/12/07 09:10:47;;;;;;;18.83;6.97;;;;;;;3.93;89.57;100910.44;5024191;28;20415;-62
2021/12/07 09:13:12;;;;;;;17.98;7.35;;;;;;;4.09;89.67;100901.25;5024126;28;20182;-63
2021/12/07 09:15:38;;;;;;;18.15;6.88;;;;;;;4.26;88.32;100910.06;5024618;28;20097;-63
2021/12/07 09:18:04;;;;;;;19.90;6.93;;;;;;;4.33;88.04;100906.41;5023324;28;20021;-63
2021/12/07 09:20:30;;;;;;;17.45;6.20;;;;;;;4.48;87.13;100902.84;5024565;28;20362;-63
2021/12/07 09:22:56;;;;;;;17.65;5.97;;;;;;;4.44;86.87;100907.81;5038243;28;20040;-63
2021/12/07 09:25:22;;;;;;;15.15;6.78;;;;;;;4.29;86.84;100915.97;5043902;28;20028;-62
2021/12/07 09:27:47;;;;;;;15.95;7.00;;;;;;;4.14;87.54;100912.41;5043924;28;20033;-62
2021/12/07 09:30:16;;;;;;;17.17;6.38;;;;;;;3.98;88.35;100918.88;5043860;28;20033;-63
2021/12/07 09:32:42;;;;;;;18.27;5.95;;;;;;;3.97;88.72;100917.19;5043492;28;20391;-64
2021/12/07 09:35:08;;;;;;;15.48;5.55;;;;;;;4.16;88.09;100915.81;5043701;28;20021;-63
2021/12/07 09:37:35;;;;;;;20.67;5.70;;;;;;;4.36;86.72;100916.09;5043771;28;20131;-63
2021/12/07 09:40:00;;;;;;;18.15;6.50;;;;;;;4.55;86.78;100907.31;5042656;28;20440;-63
2021/12/07 09:42:26;;;;;;;17.05;6.82;;;;;;;4.73;86.80;100912.38;5044263;28;20024;-63
2021/12/07 09:44:52;;;;;;;17.13;6.85;;;;;;;4.95;84.69;100908.63;5044026;28;20013;-63
2021/12/07 09:47:18;;;;;;;17.52;6.60;;;;;;;5.19;84.40;100907.44;5041687;28;20029;-63
2021/12/07 09:49:43;;;;;;;15.35;7.35;;;;;;;5.54;83.83;100910.28;5043773;28;20116;-63
2021/12/07 09:52:08;;;;;;;18.90;8.48;;;;;;;5.70;81.77;100903.69;5044119;28;20021;-63
2021/12/07 09:54:34;;;;;;;20.00;7.97;;;;;;;6.20;80.81;100910.78;5043726;28;20178;-63
2021/12/07 09:56:59;;;;;;;16.35;7.20;;;;;;;6.83;77.23;100905.19;5043987;28;20033;-68
2021/12/07 09:59:25;;;;;;;17.60;6.75;;;;;;;7.52;75.08;100899.47;5044030;28;20028;-63
2021/12/07 10:01:50;;;;;;;17.40;6.30;;;;;;;8.20;71.12;100901.94;5043386;28;20029;-63
2021/12/07 10:04:15;;;;;;;19.23;5.32;;;;;;;8.66;69.40;100889.19;5043233;28;20130;-62
2021/12/07 10:06:41;;;;;;;20.30;5.82;;;;;;;9.18;67.14;100888.09;5044002;28;20112;-62
2021/12/07 10:09:07;;;;;;;17.13;5.50;;;;;;;9.86;65.06;100885.44;5043215;28;20048;-62
2021/12/07 10:11:33;;;;;;;14.32;5.00;;;;;;;10.46;63.13;100882.09;5043358;28;20032;-62
2021/12/07 10:13:58;;;;;;;14.70;4.55;;;;;;;11.35;61.00;100871.34;5044325;28;20029;-63
2021/12/07 10:16:24;;;;;;;12.35;4.68;;;;;;;12.02;57.48;100891.25;5046291;28;20052;-62
2021/12/07 10:18:51;;;;;;;13.45;5.32;;;;;;;12.09;57.31;100880.09;5046647;28;20114;-62
2021/12/07 10:21:19;;;;;;;10.98;4.35;;;;;;;12.11;56.19;100875.19;5045919;28;20649;-62
2021/12/07 10:23:49;;;;;;;14.05;4.95;;;;;;;11.86;56.76;100870.78;5047554;28;20492;-62
2021/12/07 10:26:19;;;;;;;16.98;5.13;;;;;;;11.74;56.98;100863.53;5046359;28;20040;-62
2021/12/07 10:28:52;;;;;;;16.27;5.35;;;;;;;12.28;55.54;100865.13;5047116;28;20559;-62
2021/12/07 10:31:36;;;;;;;15.50;5.88;;;;;;;12.85;55.09;100869.91;5045604;28;20029;-62
2021/12/07 10:34:11;;;;;;;16.58;5.05;;;;;;;13.37;52.85;100876.13;5046994;28;20048;-67
2021/12/07 10:36:45;;;;;;;13.68;4.85;;;;;;;13.38;52.87;100865.94;5047028;28;20025;-62
2021/12/07 10:39:13;;;;;;;16.27;5.53;;;;;;;13.22;51.70;100856.56;5046548;28;20044;-62
2021/12/07 10:41:51;;;;;;;17.85;4.82;;;;;;;13.37;53.74;100856.00;5047463;28;20025;-62
2021/12/07 10:44:18;;;;;;;10.45;4.13;;;;;;;13.56;51.58;100857.44;5046627;28;20025;-62
2021/12/07 10:46:51;;;;;;;14.82;4.43;;;;;;;13.93;50.17;100843.13;5046345;28;20479;-62
2021/12/07 10:49:35;;;;;;;11.57;4.15;;;;;;;14.17;49.91;100843.75;5046069;28;20540;-62
2021/12/07 10:52:19;;;;;;;15.02;4.68;;;;;;;14.50;49.46;100829.88;5046920;28;20116;-62
2021/12/07 10:54:56;;;;;;;11.48;4.82;;;;;;;14.95;49.55;100828.75;5046440;28;20028;-62
2021/12/07 10:57:25;;;;;;;14.93;5.38;;;;;;;14.61;47.34;100824.47;5046296;28;20040;-62
2021/12/07 11:00:11;;;;;;;14.65;4.68;;;;;;;14.80;49.51;100825.81;5046836;28;20036;-62
2021/12/07 11:02:39;;;;;;;18.95;4.93;;;;;;;15.29;46.65;100817.44;5045783;28;20589;-62
2021/12/07 11:05:10;;;;;;;12.73;4.07;;;;;;;15.58;46.06;100810.50;5045240;28;20017;-62
2021/12/07 11:07:36;;;;;;;14.25;4.38;;;;;;;15.43;45.43;100802.06;5029104;28;20141;-62
2021/12/07 11:10:18;;;;;;;11.90;4.28;;;;;;;14.50;46.45;100795.88;5039500;28;20123;-63
2021/12/07 11:15:28;;;;;;;17.67;4.50;;;;;;;14.36;47.70;100791.78;5046883;28;20029;-61
2021/12/07 11:18:05;;;;;;;13.90;4.72;;;;;;;14.43;49.04;100790.50;5045946;28;20029;-61
2021/12/07 11:20:31;;;;;;;12.85;4.63;;;;;;;14.61;47.57;100786.59;5046769;28;20843;-62
2021/12/07 11:23:03;;;;;;;16.25;4.82;;;;;;;14.68;46.31;100783.63;5045591;28;20102;-61
2021/12/07 11:31:37;;;;;;;13.23;4.50;;;;;;;14.15;48.23;100774.97;5045309;28;20189;-63
2021/12/07 11:34:08;;;;;;;12.38;4.07;;;;;;;13.09;49.72;100776.88;5046231;28;20036;-65
2021/12/07 11:36:48;;;;;;;15.15;4.25;;;;;;;12.82;51.50;100774.75;5046427;28;20067;-62
2021/12/07 11:39:31;;;;;;;15.45;4.82;;;;;;;12.82;50.90;100773.91;5043629;28;20037;-62
2021/12/07 11:42:02;;;;;;;14.75;4.50;;;;;;;12.17;52.00;100775.13;5044767;28;20442;-62
2021/12/07 11:44:29;;;;;;;13.23;4.30;;;;;;;11.52;52.99;100784.34;5044625;28;20125;-62
2021/12/07 11:46:56;;;;;;;14.70;4.47;;;;;;;11.41;54.37;100775.03;5045511;28;20438;-62
2021/12/07 11:49:25;;;;;;;14.88;4.20;;;;;;;11.02;54.44;100768.28;5045409;28;20037;-62
2021/12/07 11:51:56;;;;;;;14.95;4.82;;;;;;;10.69;56.35;100768.75;5044293;28;20025;-62
2021/12/07 11:54:32;;;;;;;14.15;6.03;;;;;;;10.68;57.14;100761.59;5030941;28;20720;-63
2021/12/07 11:57:00;;;;;;;18.48;5.80;;;;;;;10.30;56.60;100761.94;5040216;28;20090;-62
2021/12/07 11:59:25;;;;;;;15.40;5.07;;;;;;;10.30;56.89;100762.75;5045684;28;20021;-62
2021/12/07 12:01:52;;;;;;;14.77;4.68;;;;;;;10.30;56.08;100760.00;5042875;28;20091;-62
2021/12/07 12:04:19;;;;;;;13.35;4.93;;;;;;;10.17;56.17;100753.81;5024690;28;20021;-62
2021/12/07 12:06:50;;;;;;;19.90;5.38;;;;;;;10.26;56.20;100742.31;5036148;28;20029;-62
2021/12/07 12:09:17;;;;;;;18.05;6.32;;;;;;;10.68;55.72;100727.81;5041420;28;20029;-62
2021/12/07 12:11:57;;;;;;;19.58;6.13;;;;;;;10.76;55.27;100733.81;5044629;28;20032;-62
2021/12/07 12:14:31;;;;;;;17.80;5.50;;;;;;;10.87;55.08;100738.47;5042409;28;20124;-62
2021/12/07 12:17:08;;;;;;;17.80;5.40;;;;;;;10.64;55.79;100727.41;5043055;28;20119;-62
2021/12/07 12:20:17;;;;;;;12.75;4.57;;;;;;;10.45;56.64;100712.09;5044295;28;20021;-64
2021/12/07 12:23:09;;;;;;;16.88;4.72;;;;;;;10.28;56.61;100718.22;5033593;28;20123;-62
2021/12/07 12:25:36;;;;;;;16.65;4.40;;;;;;;9.96;57.24;100705.75;5040985;28;20510;-62
2021/12/07 12:28:02;;;;;;;15.25;4.35;;;;;;;9.51;57.13;100701.41;5044775;28;20509;-66
2021/12/07 12:30:32;;;;;;;16.63;4.95;;;;;;;9.29;58.39;100703.75;5042958;28;20055;-62
2021/12/07 12:33:11;;;;;;;13.70;4.50;;;;;;;9.07;60.17;100689.63;5043331;28;20507;-63
2021/12/07 12:35:50;;;;;;;14.50;4.30;;;;;;;9.03;60.39;100687.56;5047105;28;20029;-62
2021/12/07 12:38:20;;;;;;;;;;;;;;;9.03;60.36;100682.91;5040812;28;20036;-63
2021/12/07 12:41:00;;;;;;;14.98;4.38;;;;;;;8.79;62.20;100684.59;5032012;28;19959;-62
2021/12/07 12:43:45;;;;;;;16.05;4.75;;;;;;;8.62;61.00;100690.81;5042176;28;20032;-63
2021/12/07 12:46:13;;;;;;;17.15;4.90;;;;;;;8.15;62.07;100682.03;5036574;28;20440;-64
2021/12/07 12:48:45;;;;;;;18.25;4.50;;;;;;;7.86;63.64;100672.53;5039947;28;20403;-63
2021/12/07 12:51:10;;;;;;;12.10;4.07;;;;;;;7.40;65.00;100665.31;5039206;28;20021;-63
2021/12/07 12:53:36;;;;;;;14.07;5.43;;;;;;;7.02;66.75;100653.22;5041930;28;20069;-63
2021/12/07 12:56:09;;;;;;;15.15;4.20;;;;;;;6.69;69.00;100647.78;5039259;28;20084;-67
2021/12/07 12:58:42;;;;;;;16.73;3.90;;;;;;;6.50;69.85;100632.25;5043299;28;20206;-63
2021/12/07 13:01:10;;;;;;;16.15;4.00;;;;;;;6.35;70.79;100612.50;5042164;28;20533;-63
2021/12/07 13:03:52;;;;;;;15.35;4.35;;;;;;;6.25;71.14;100610.19;5040957;28;20114;-63
2021/12/07 13:06:43;;;;;;;11.45;4.18;;;;;;;6.13;71.90;100607.25;5043620;28;20032;-63
2021/12/07 13:09:18;;;;;;;19.88;3.67;;;;;;;6.10;71.87;100604.09;5042893;28;20068;-63